sensor_id;sensor_type;location;lat;lon;timestamp;P1;durP1;ratioP1;P2;durP2;ratioP2
46701;SDS011;33449;50.712;7.124;2023-03-24T00:03:01;2.97;;;1.50;;
46701;SDS011;33449;50.712;7.124;2023-03-24T00:05:28;4.03;;;1.75;;
46701;SDS011;33449;50.712;7.124;2023-03-24T00:07:56;3.60;;;1.42;;
46701;SDS011;33449;50.712;7.124;2023-03-24T00:12:55;2.45;;;1.30;;
46701;SDS011;33449;50.712;7.124;2023-03-24T00:17:54;3.65;;;1.40;;
46701;SDS011;33449;50.712;7.124;2023-03-24T00:20:24;4.15;;;1.52;;
46701;SDS011;33449;50.712;7.124;2023-03-24T00:22:52;3.50;;;1.25;;
46701;SDS011;33449;50.712;7.124;2023-03-24T00:25:25;2.33;;;1.20;;
46701;SDS011;33449;50.712;7.124;2023-03-24T00:27:55;3.97;;;1.90;;
46701;SDS011;33449;50.712;7.124;2023-03-24T00:30:22;5.38;;;1.90;;
46701;SDS011;33449;50.712;7.124;2023-03-24T00:32:50;4.63;;;1.90;;
46701;SDS011;33449;50.712;7.124;2023-03-24T00:35:17;4.00;;;1.60;;
46701;SDS011;33449;50.712;7.124;2023-03-24T00:37:44;4.05;;;2.90;;
46701;SDS011;33449;50.712;7.124;2023-03-24T00:40:13;2.60;;;1.55;;
46701;SDS011;33449;50.712;7.124;2023-03-24T00:42:42;3.10;;;1.77;;
46701;SDS011;33449;50.712;7.124;2023-03-24T00:47:43;3.13;;;1.40;;
46701;SDS011;33449;50.712;7.124;2023-03-24T00:50:14;4.43;;;1.40;;
46701;SDS011;33449;50.712;7.124;2023-03-24T00:52:43;4.13;;;1.88;;
46701;SDS011;33449;50.712;7.124;2023-03-24T00:55:13;3.58;;;2.13;;
46701;SDS011;33449;50.712;7.124;2023-03-24T00:57:42;4.97;;;2.03;;
46701;SDS011;33449;50.712;7.124;2023-03-24T01:02:47;2.83;;;1.20;;
46701;SDS011;33449;50.712;7.124;2023-03-24T01:05:19;3.20;;;1.67;;
46701;SDS011;33449;50.712;7.124;2023-03-24T01:07:47;4.55;;;1.88;;
46701;SDS011;33449;50.712;7.124;2023-03-24T01:10:18;4.55;;;1.60;;
46701;SDS011;33449;50.712;7.124;2023-03-24T01:12:46;4.03;;;1.40;;
46701;SDS011;33449;50.712;7.124;2023-03-24T01:15:15;2.55;;;1.65;;
46701;SDS011;33449;50.712;7.124;2023-03-24T01:17:44;5.53;;;2.00;;
46701;SDS011;33449;50.712;7.124;2023-03-24T01:20:12;7.07;;;2.40;;
46701;SDS011;33449;50.712;7.124;2023-03-24T01:22:39;6.43;;;1.92;;
46701;SDS011;33449;50.712;7.124;2023-03-24T01:25:13;3.72;;;1.65;;
46701;SDS011;33449;50.712;7.124;2023-03-24T01:27:42;3.72;;;1.67;;
46701;SDS011;33449;50.712;7.124;2023-03-24T01:32:40;2.97;;;2.05;;
46701;SDS011;33449;50.712;7.124;2023-03-24T01:35:07;5.10;;;2.47;;
46701;SDS011;33449;50.712;7.124;2023-03-24T01:37:34;4.32;;;2.35;;
46701;SDS011;33449;50.712;7.124;2023-03-24T01:40:01;2.65;;;1.70;;
46701;SDS011;33449;50.712;7.124;2023-03-24T01:42:32;4.00;;;1.90;;
46701;SDS011;33449;50.712;7.124;2023-03-24T01:47:31;3.60;;;1.63;;
46701;SDS011;33449;50.712;7.124;2023-03-24T01:50:00;5.68;;;2.88;;
46701;SDS011;33449;50.712;7.124;2023-03-24T01:52:32;2.70;;;1.90;;
46701;SDS011;33449;50.712;7.124;2023-03-24T01:55:04;3.88;;;2.13;;
46701;SDS011;33449;50.712;7.124;2023-03-24T01:57:38;5.80;;;2.40;;
46701;SDS011;33449;50.712;7.124;2023-03-24T02:02:38;5.80;;;1.88;;
46701;SDS011;33449;50.712;7.124;2023-03-24T02:05:08;4.57;;;1.63;;
46701;SDS011;33449;50.712;7.124;2023-03-24T02:10:42;4.22;;;2.42;;
46701;SDS011;33449;50.712;7.124;2023-03-24T02:13:10;4.07;;;2.10;;
46701;SDS011;33449;50.712;7.124;2023-03-24T02:19:24;5.07;;;1.85;;
46701;SDS011;33449;50.712;7.124;2023-03-24T02:21:59;3.78;;;2.13;;
46701;SDS011;33449;50.712;7.124;2023-03-24T02:30:27;3.78;;;2.10;;
46701;SDS011;33449;50.712;7.124;2023-03-24T02:38:37;4.32;;;2.13;;
46701;SDS011;33449;50.712;7.124;2023-03-24T02:44:02;7.88;;;2.70;;
46701;SDS011;33449;50.712;7.124;2023-03-24T02:46:52;5.07;;;2.28;;
46701;SDS011;33449;50.712;7.124;2023-03-24T02:52:30;4.15;;;2.40;;
46701;SDS011;33449;50.712;7.124;2023-03-24T02:55:14;4.65;;;1.77;;
46701;SDS011;33449;50.712;7.124;2023-03-24T02:58:29;4.85;;;2.55;;
46701;SDS011;33449;50.712;7.124;2023-03-24T03:01:05;4.15;;;2.47;;
46701;SDS011;33449;50.712;7.124;2023-03-24T03:03:58;4.45;;;2.10;;
46701;SDS011;33449;50.712;7.124;2023-03-24T03:06:43;4.82;;;2.50;;
46701;SDS011;33449;50.712;7.124;2023-03-24T03:09:14;3.72;;;2.00;;
46701;SDS011;33449;50.712;7.124;2023-03-24T03:11:44;6.57;;;2.70;;
46701;SDS011;33449;50.712;7.124;2023-03-24T03:17:21;3.95;;;1.95;;
46701;SDS011;33449;50.712;7.124;2023-03-24T03:20:15;5.30;;;2.88;;
46701;SDS011;33449;50.712;7.124;2023-03-24T03:22:45;6.68;;;2.40;;
46701;SDS011;33449;50.712;7.124;2023-03-24T03:25:15;4.35;;;2.80;;
46701;SDS011;33449;50.712;7.124;2023-03-24T03:27:45;3.10;;;2.00;;
46701;SDS011;33449;50.712;7.124;2023-03-24T03:30:15;4.13;;;2.25;;
46701;SDS011;33449;50.712;7.124;2023-03-24T03:32:58;4.00;;;2.70;;
46701;SDS011;33449;50.712;7.124;2023-03-24T03:41:10;5.75;;;2.17;;
46701;SDS011;33449;50.712;7.124;2023-03-24T03:43:37;4.70;;;2.65;;
46701;SDS011;33449;50.712;7.124;2023-03-24T03:46:04;4.55;;;2.67;;
46701;SDS011;33449;50.712;7.124;2023-03-24T03:48:32;3.97;;;2.83;;
46701;SDS011;33449;50.712;7.124;2023-03-24T03:50:59;5.53;;;2.53;;
46701;SDS011;33449;50.712;7.124;2023-03-24T03:56:12;4.25;;;2.97;;
46701;SDS011;33449;50.712;7.124;2023-03-24T03:58:43;5.70;;;2.55;;
46701;SDS011;33449;50.712;7.124;2023-03-24T04:01:12;3.92;;;2.17;;
46701;SDS011;33449;50.712;7.124;2023-03-24T04:07:07;4.85;;;2.40;;
46701;SDS011;33449;50.712;7.124;2023-03-24T04:10:00;4.70;;;2.30;;
46701;SDS011;33449;50.712;7.124;2023-03-24T04:13:06;5.47;;;2.75;;
46701;SDS011;33449;50.712;7.124;2023-03-24T04:21:28;5.07;;;2.60;;
46701;SDS011;33449;50.712;7.124;2023-03-24T04:27:10;5.43;;;2.30;;
46701;SDS011;33449;50.712;7.124;2023-03-24T04:29:48;4.32;;;2.30;;
46701;SDS011;33449;50.712;7.124;2023-03-24T04:34:59;3.15;;;1.85;;
46701;SDS011;33449;50.712;7.124;2023-03-24T04:37:31;3.35;;;2.15;;
46701;SDS011;33449;50.712;7.124;2023-03-24T04:40:09;3.60;;;1.90;;
46701;SDS011;33449;50.712;7.124;2023-03-24T04:42:39;6.18;;;2.17;;
46701;SDS011;33449;50.712;7.124;2023-03-24T04:45:10;3.40;;;1.83;;
46701;SDS011;33449;50.712;7.124;2023-03-24T04:47:41;3.03;;;1.90;;
46701;SDS011;33449;50.712;7.124;2023-03-24T04:58:26;2.60;;;1.70;;
46701;SDS011;33449;50.712;7.124;2023-03-24T05:00:52;6.07;;;1.60;;
46701;SDS011;33449;50.712;7.124;2023-03-24T05:03:21;3.00;;;1.48;;
46701;SDS011;33449;50.712;7.124;2023-03-24T05:05:48;2.97;;;1.38;;
46701;SDS011;33449;50.712;7.124;2023-03-24T05:10:49;4.47;;;1.48;;
46701;SDS011;33449;50.712;7.124;2023-03-24T05:13:15;2.20;;;1.30;;
46701;SDS011;33449;50.712;7.124;2023-03-24T05:15:42;3.60;;;1.50;;
46701;SDS011;33449;50.712;7.124;2023-03-24T05:18:09;3.58;;;1.80;;
46701;SDS011;33449;50.712;7.124;2023-03-24T05:25:45;1.73;;;1.27;;
46701;SDS011;33449;50.712;7.124;2023-03-24T05:28:12;3.83;;;1.80;;
46701;SDS011;33449;50.712;7.124;2023-03-24T05:30:39;1.83;;;1.30;;
46701;SDS011;33449;50.712;7.124;2023-03-24T05:33:06;4.18;;;1.33;;
46701;SDS011;33449;50.712;7.124;2023-03-24T05:35:32;3.05;;;1.33;;
46701;SDS011;33449;50.712;7.124;2023-03-24T05:40:40;2.30;;;1.10;;
46701;SDS011;33449;50.712;7.124;2023-03-24T05:43:06;2.50;;;1.00;;
46701;SDS011;33449;50.712;7.124;2023-03-24T05:45:33;2.13;;;0.93;;
46701;SDS011;33449;50.712;7.124;2023-03-24T05:48:00;4.82;;;1.20;;
46701;SDS011;33449;50.712;7.124;2023-03-24T05:50:27;5.13;;;0.90;;
46701;SDS011;33449;50.712;7.124;2023-03-24T05:55:42;1.67;;;0.73;;
46701;SDS011;33449;50.712;7.124;2023-03-24T05:58:11;2.83;;;0.90;;
46701;SDS011;33449;50.712;7.124;2023-03-24T06:00:38;4.32;;;1.25;;
46701;SDS011;33449;50.712;7.124;2023-03-24T06:03:05;2.17;;;1.00;;
46701;SDS011;33449;50.712;7.124;2023-03-24T06:05:32;2.47;;;1.08;;
46701;SDS011;33449;50.712;7.124;2023-03-24T06:10:44;5.18;;;1.08;;
46701;SDS011;33449;50.712;7.124;2023-03-24T06:13:10;3.22;;;1.25;;
46701;SDS011;33449;50.712;7.124;2023-03-24T06:15:37;1.92;;;1.00;;
46701;SDS011;33449;50.712;7.124;2023-03-24T06:18:05;2.40;;;1.08;;
46701;SDS011;33449;50.712;7.124;2023-03-24T06:20:32;4.53;;;1.10;;
46701;SDS011;33449;50.712;7.124;2023-03-24T06:25:33;3.17;;;0.90;;
46701;SDS011;33449;50.712;7.124;2023-03-24T06:28:00;2.08;;;1.08;;
46701;SDS011;33449;50.712;7.124;2023-03-24T06:30:29;2.33;;;0.95;;
46701;SDS011;33449;50.712;7.124;2023-03-24T06:32:56;8.45;;;1.30;;
46701;SDS011;33449;50.712;7.124;2023-03-24T06:35:23;3.63;;;1.17;;
46701;SDS011;33449;50.712;7.124;2023-03-24T06:40:31;3.08;;;1.20;;
46701;SDS011;33449;50.712;7.124;2023-03-24T06:42:58;3.15;;;1.10;;
46701;SDS011;33449;50.712;7.124;2023-03-24T06:45:25;3.75;;;1.73;;
46701;SDS011;33449;50.712;7.124;2023-03-24T06:47:55;3.97;;;1.10;;
46701;SDS011;33449;50.712;7.124;2023-03-24T06:50:22;3.85;;;1.30;;
46701;SDS011;33449;50.712;7.124;2023-03-24T06:52:58;6.43;;;1.77;;
46701;SDS011;33449;50.712;7.124;2023-03-24T06:55:26;4.78;;;1.52;;
46701;SDS011;33449;50.712;7.124;2023-03-24T06:57:53;3.85;;;1.08;;
46701;SDS011;33449;50.712;7.124;2023-03-24T07:00:20;4.72;;;1.02;;
46701;SDS011;33449;50.712;7.124;2023-03-24T07:02:47;6.47;;;1.30;;
46701;SDS011;33449;50.712;7.124;2023-03-24T07:05:17;4.60;;;1.27;;
46701;SDS011;33449;50.712;7.124;2023-03-24T07:07:47;4.00;;;1.00;;
46701;SDS011;33449;50.712;7.124;2023-03-24T07:10:18;5.82;;;1.42;;
46701;SDS011;33449;50.712;7.124;2023-03-24T07:12:48;5.55;;;1.50;;
46701;SDS011;33449;50.712;7.124;2023-03-24T07:15:15;4.70;;;1.20;;
46701;SDS011;33449;50.712;7.124;2023-03-24T07:17:44;5.88;;;1.42;;
46701;SDS011;33449;50.712;7.124;2023-03-24T07:20:15;5.43;;;1.45;;
46701;SDS011;33449;50.712;7.124;2023-03-24T07:25:14;5.78;;;1.83;;
46701;SDS011;33449;50.712;7.124;2023-03-24T07:27:45;6.82;;;1.90;;
46701;SDS011;33449;50.712;7.124;2023-03-24T07:30:12;11.27;;;2.85;;
46701;SDS011;33449;50.712;7.124;2023-03-24T07:32:58;7.13;;;2.10;;
46701;SDS011;33449;50.712;7.124;2023-03-24T07:35:27;4.38;;;1.95;;
46701;SDS011;33449;50.712;7.124;2023-03-24T07:38:05;7.28;;;2.08;;
46701;SDS011;33449;50.712;7.124;2023-03-24T07:40:32;7.93;;;2.63;;
46701;SDS011;33449;50.712;7.124;2023-03-24T07:43:00;6.38;;;2.58;;
46701;SDS011;33449;50.712;7.124;2023-03-24T07:45:32;7.03;;;1.90;;
46701;SDS011;33449;50.712;7.124;2023-03-24T07:47:59;4.90;;;2.00;;
46701;SDS011;33449;50.712;7.124;2023-03-24T07:50:27;4.43;;;1.90;;
46701;SDS011;33449;50.712;7.124;2023-03-24T07:52:55;6.68;;;1.70;;
46701;SDS011;33449;50.712;7.124;2023-03-24T07:55:25;9.35;;;2.53;;
46701;SDS011;33449;50.712;7.124;2023-03-24T07:58:02;9.60;;;2.17;;
46701;SDS011;33449;50.712;7.124;2023-03-24T08:00:29;9.20;;;2.13;;
46701;SDS011;33449;50.712;7.124;2023-03-24T08:02:58;7.10;;;2.33;;
46701;SDS011;33449;50.712;7.124;2023-03-24T08:05:26;9.40;;;2.58;;
46701;SDS011;33449;50.712;7.124;2023-03-24T08:07:55;10.25;;;2.28;;
46701;SDS011;33449;50.712;7.124;2023-03-24T08:10:24;5.28;;;2.55;;
46701;SDS011;33449;50.712;7.124;2023-03-24T08:13:02;7.53;;;2.13;;
46701;SDS011;33449;50.712;7.124;2023-03-24T08:15:29;9.30;;;2.15;;
46701;SDS011;33449;50.712;7.124;2023-03-24T08:17:55;9.48;;;2.08;;
46701;SDS011;33449;50.712;7.124;2023-03-24T08:20:22;17.15;;;3.65;;
46701;SDS011;33449;50.712;7.124;2023-03-24T08:22:52;5.63;;;1.83;;
46701;SDS011;33449;50.712;7.124;2023-03-24T08:25:20;12.63;;;2.13;;
46701;SDS011;33449;50.712;7.124;2023-03-24T08:28:09;5.22;;;1.58;;
46701;SDS011;33449;50.712;7.124;2023-03-24T08:30:36;9.73;;;2.25;;
46701;SDS011;33449;50.712;7.124;2023-03-24T08:33:03;4.47;;;1.35;;
46701;SDS011;33449;50.712;7.124;2023-03-24T08:35:31;6.20;;;1.95;;
46701;SDS011;33449;50.712;7.124;2023-03-24T08:37:59;8.38;;;2.25;;
46701;SDS011;33449;50.712;7.124;2023-03-24T08:42:59;10.13;;;2.20;;
46701;SDS011;33449;50.712;7.124;2023-03-24T08:45:29;7.35;;;1.98;;
46701;SDS011;33449;50.712;7.124;2023-03-24T08:47:58;11.45;;;2.58;;
46701;SDS011;33449;50.712;7.124;2023-03-24T08:50:31;8.88;;;1.98;;
46701;SDS011;33449;50.712;7.124;2023-03-24T08:57:56;7.40;;;1.90;;
46701;SDS011;33449;50.712;7.124;2023-03-24T09:00:25;7.70;;;1.80;;
46701;SDS011;33449;50.712;7.124;2023-03-24T09:02:54;9.75;;;1.98;;
46701;SDS011;33449;50.712;7.124;2023-03-24T09:05:22;5.40;;;1.60;;
46701;SDS011;33449;50.712;7.124;2023-03-24T09:08:10;10.50;;;2.30;;
46701;SDS011;33449;50.712;7.124;2023-03-24T09:10:37;8.50;;;1.80;;
46701;SDS011;33449;50.712;7.124;2023-03-24T09:13:05;7.75;;;1.83;;
46701;SDS011;33449;50.712;7.124;2023-03-24T09:15:32;8.57;;;1.55;;
46701;SDS011;33449;50.712;7.124;2023-03-24T09:17:59;10.45;;;1.45;;
46701;SDS011;33449;50.712;7.124;2023-03-24T09:20:27;7.82;;;1.67;;
46701;SDS011;33449;50.712;7.124;2023-03-24T09:22:53;8.68;;;2.08;;
46701;SDS011;33449;50.712;7.124;2023-03-24T09:25:21;7.80;;;1.75;;
46701;SDS011;33449;50.712;7.124;2023-03-24T09:27:48;6.68;;;2.30;;
46701;SDS011;33449;50.712;7.124;2023-03-24T09:30:16;7.13;;;1.38;;
46701;SDS011;33449;50.712;7.124;2023-03-24T09:32:43;7.90;;;1.50;;
46701;SDS011;33449;50.712;7.124;2023-03-24T09:35:11;8.57;;;1.38;;
46701;SDS011;33449;50.712;7.124;2023-03-24T09:37:38;9.63;;;1.58;;
46701;SDS011;33449;50.712;7.124;2023-03-24T09:40:06;6.32;;;1.75;;
46701;SDS011;33449;50.712;7.124;2023-03-24T09:42:37;5.93;;;1.52;;
46701;SDS011;33449;50.712;7.124;2023-03-24T09:45:14;5.40;;;1.40;;
46701;SDS011;33449;50.712;7.124;2023-03-24T09:47:45;12.15;;;1.40;;
46701;SDS011;33449;50.712;7.124;2023-03-24T09:50:18;5.38;;;1.30;;
46701;SDS011;33449;50.712;7.124;2023-03-24T09:52:49;5.85;;;1.42;;
46701;SDS011;33449;50.712;7.124;2023-03-24T09:55:25;5.88;;;1.17;;
46701;SDS011;33449;50.712;7.124;2023-03-24T09:57:54;5.82;;;1.48;;
46701;SDS011;33449;50.712;7.124;2023-03-24T10:02:50;8.95;;;1.10;;
46701;SDS011;33449;50.712;7.124;2023-03-24T10:05:26;4.20;;;1.35;;
46701;SDS011;33449;50.712;7.124;2023-03-24T10:07:56;6.88;;;1.45;;
46701;SDS011;33449;50.712;7.124;2023-03-24T10:13:01;9.95;;;1.70;;
46701;SDS011;33449;50.712;7.124;2023-03-24T10:15:38;5.40;;;1.17;;
46701;SDS011;33449;50.712;7.124;2023-03-24T10:21:24;7.75;;;2.28;;
46701;SDS011;33449;50.712;7.124;2023-03-24T10:24:14;6.28;;;2.55;;
46701;SDS011;33449;50.712;7.124;2023-03-24T10:26:51;4.00;;;1.00;;
46701;SDS011;33449;50.712;7.124;2023-03-24T10:29:27;5.97;;;1.50;;
46701;SDS011;33449;50.712;7.124;2023-03-24T10:31:59;4.20;;;1.23;;
46701;SDS011;33449;50.712;7.124;2023-03-24T10:34:28;4.82;;;1.38;;
46701;SDS011;33449;50.712;7.124;2023-03-24T10:36:58;7.82;;;1.60;;
46701;SDS011;33449;50.712;7.124;2023-03-24T10:39:25;4.78;;;1.35;;
46701;SDS011;33449;50.712;7.124;2023-03-24T10:42:22;10.77;;;1.80;;
46701;SDS011;33449;50.712;7.124;2023-03-24T10:44:50;6.03;;;1.75;;
46701;SDS011;33449;50.712;7.124;2023-03-24T10:47:27;6.20;;;1.33;;
46701;SDS011;33449;50.712;7.124;2023-03-24T10:50:01;10.55;;;2.28;;
46701;SDS011;33449;50.712;7.124;2023-03-24T10:52:44;3.72;;;1.20;;
46701;SDS011;33449;50.712;7.124;2023-03-24T10:55:19;5.65;;;2.33;;
46701;SDS011;33449;50.712;7.124;2023-03-24T10:57:51;4.85;;;1.17;;
46701;SDS011;33449;50.712;7.124;2023-03-24T11:00:36;6.97;;;1.65;;
46701;SDS011;33449;50.712;7.124;2023-03-24T11:03:10;9.05;;;1.70;;
46701;SDS011;33449;50.712;7.124;2023-03-24T11:05:38;8.30;;;1.63;;
46701;SDS011;33449;50.712;7.124;2023-03-24T11:08:17;13.43;;;1.55;;
46701;SDS011;33449;50.712;7.124;2023-03-24T11:10:50;5.78;;;1.38;;
46701;SDS011;33449;50.712;7.124;2023-03-24T11:13:19;5.72;;;1.50;;
46701;SDS011;33449;50.712;7.124;2023-03-24T11:18:59;7.97;;;2.10;;
46701;SDS011;33449;50.712;7.124;2023-03-24T11:21:27;5.75;;;1.40;;
46701;SDS011;33449;50.712;7.124;2023-03-24T11:23:58;6.03;;;2.05;;
46701;SDS011;33449;50.712;7.124;2023-03-24T11:26:30;5.13;;;1.35;;
46701;SDS011;33449;50.712;7.124;2023-03-24T11:28:59;3.67;;;1.40;;
46701;SDS011;33449;50.712;7.124;2023-03-24T11:31:29;4.20;;;1.02;;
46701;SDS011;33449;50.712;7.124;2023-03-24T11:39:02;7.07;;;1.33;;
46701;SDS011;33449;50.712;7.124;2023-03-24T11:41:29;8.30;;;1.20;;
46701;SDS011;33449;50.712;7.124;2023-03-24T11:44:16;5.85;;;1.02;;
46701;SDS011;33449;50.712;7.124;2023-03-24T11:46:45;7.03;;;1.17;;
46701;SDS011;33449;50.712;7.124;2023-03-24T11:49:14;5.68;;;1.40;;
46701;SDS011;33449;50.712;7.124;2023-03-24T11:51:42;3.60;;;0.97;;
46701;SDS011;33449;50.712;7.124;2023-03-24T11:54:12;6.60;;;1.25;;
46701;SDS011;33449;50.712;7.124;2023-03-24T11:56:45;2.65;;;0.65;;
46701;SDS011;33449;50.712;7.124;2023-03-24T12:02:22;4.97;;;1.45;;
46701;SDS011;33449;50.712;7.124;2023-03-24T12:07:32;6.85;;;1.45;;
46701;SDS011;33449;50.712;7.124;2023-03-24T12:10:10;10.07;;;2.00;;
46701;SDS011;33449;50.712;7.124;2023-03-24T12:18:07;7.50;;;1.65;;
46701;SDS011;33449;50.712;7.124;2023-03-24T12:20:41;5.93;;;1.15;;
46701;SDS011;33449;50.712;7.124;2023-03-24T12:33:50;5.05;;;1.45;;
46701;SDS011;33449;50.712;7.124;2023-03-24T12:36:25;3.17;;;1.23;;
46701;SDS011;33449;50.712;7.124;2023-03-24T12:39:20;6.07;;;1.05;;
46701;SDS011;33449;50.712;7.124;2023-03-24T12:49:45;7.03;;;1.10;;
46701;SDS011;33449;50.712;7.124;2023-03-24T12:55:00;4.50;;;0.98;;
46701;SDS011;33449;50.712;7.124;2023-03-24T13:02:43;2.60;;;0.80;;
46701;SDS011;33449;50.712;7.124;2023-03-24T13:05:17;3.38;;;0.82;;
46701;SDS011;33449;50.712;7.124;2023-03-24T13:07:46;7.90;;;1.55;;
46701;SDS011;33449;50.712;7.124;2023-03-24T13:10:20;5.05;;;0.95;;
46701;SDS011;33449;50.712;7.124;2023-03-24T13:15:29;5.57;;;1.30;;
46701;SDS011;33449;50.712;7.124;2023-03-24T13:23:50;4.28;;;1.20;;
46701;SDS011;33449;50.712;7.124;2023-03-24T13:25:56;4.80;;;1.30;;
46701;SDS011;33449;50.712;7.124;2023-03-24T13:28:27;2.35;;;1.08;;
46701;SDS011;33449;50.712;7.124;2023-03-24T13:30:55;3.35;;;0.60;;
46701;SDS011;33449;50.712;7.124;2023-03-24T13:38:47;3.85;;;0.88;;
46701;SDS011;33449;50.712;7.124;2023-03-24T13:41:19;3.47;;;1.13;;
46701;SDS011;33449;50.712;7.124;2023-03-24T13:43:50;5.28;;;1.15;;
46701;SDS011;33449;50.712;7.124;2023-03-24T13:46:23;3.55;;;1.15;;
46701;SDS011;33449;50.712;7.124;2023-03-24T13:48:51;7.00;;;1.20;;
46701;SDS011;33449;50.712;7.124;2023-03-24T13:54:02;3.08;;;0.93;;
46701;SDS011;33449;50.712;7.124;2023-03-24T13:59:08;2.97;;;1.00;;
46701;SDS011;33449;50.712;7.124;2023-03-24T14:01:43;6.35;;;1.77;;
46701;SDS011;33449;50.712;7.124;2023-03-24T14:06:45;4.82;;;1.48;;
46701;SDS011;33449;50.712;7.124;2023-03-24T14:17:52;3.05;;;1.17;;
46701;SDS011;33449;50.712;7.124;2023-03-24T14:20:32;1.92;;;0.70;;
46701;SDS011;33449;50.712;7.124;2023-03-24T14:25:58;7.07;;;1.13;;
46701;SDS011;33449;50.712;7.124;2023-03-24T14:28:27;4.72;;;1.52;;
46701;SDS011;33449;50.712;7.124;2023-03-24T14:36:35;1.30;;;0.70;;
46701;SDS011;33449;50.712;7.124;2023-03-24T14:41:53;2.13;;;0.60;;
46701;SDS011;33449;50.712;7.124;2023-03-24T14:47:20;5.82;;;1.30;;
46701;SDS011;33449;50.712;7.124;2023-03-24T14:49:55;2.88;;;0.60;;
46701;SDS011;33449;50.712;7.124;2023-03-24T14:52:24;2.78;;;0.68;;
46701;SDS011;33449;50.712;7.124;2023-03-24T14:54:55;5.10;;;1.33;;
46701;SDS011;33449;50.712;7.124;2023-03-24T15:02:51;2.80;;;0.77;;
46701;SDS011;33449;50.712;7.124;2023-03-24T15:05:42;3.00;;;0.60;;
46701;SDS011;33449;50.712;7.124;2023-03-24T15:11:45;3.60;;;0.70;;
46701;SDS011;33449;50.712;7.124;2023-03-24T15:17:04;4.53;;;1.00;;
46701;SDS011;33449;50.712;7.124;2023-03-24T15:19:32;6.22;;;1.65;;
46701;SDS011;33449;50.712;7.124;2023-03-24T15:22:05;3.83;;;1.10;;
46701;SDS011;33449;50.712;7.124;2023-03-24T15:24:37;8.43;;;2.00;;
46701;SDS011;33449;50.712;7.124;2023-03-24T15:29:37;5.53;;;1.10;;
46701;SDS011;33449;50.712;7.124;2023-03-24T15:32:04;3.50;;;1.00;;
46701;SDS011;33449;50.712;7.124;2023-03-24T15:41:11;6.32;;;1.08;;
46701;SDS011;33449;50.712;7.124;2023-03-24T15:58:25;6.32;;;1.05;;
46701;SDS011;33449;50.712;7.124;2023-03-24T16:14:31;6.32;;;1.20;;
46701;SDS011;33449;50.712;7.124;2023-03-24T16:55:07;5.85;;;1.48;;
46701;SDS011;33449;50.712;7.124;2023-03-24T16:57:37;4.28;;;1.50;;
46701;SDS011;33449;50.712;7.124;2023-03-24T17:00:06;6.20;;;1.60;;
46701;SDS011;33449;50.712;7.124;2023-03-24T17:02:51;5.53;;;1.48;;
46701;SDS011;33449;50.712;7.124;2023-03-24T17:08:12;5.15;;;1.25;;
46701;SDS011;33449;50.712;7.124;2023-03-24T17:10:40;4.30;;;1.25;;
46701;SDS011;33449;50.712;7.124;2023-03-24T17:13:44;2.28;;;1.02;;
46701;SDS011;33449;50.712;7.124;2023-03-24T17:16:11;3.05;;;0.80;;
46701;SDS011;33449;50.712;7.124;2023-03-24T17:18:40;1.08;;;0.50;;
46701;SDS011;33449;50.712;7.124;2023-03-24T17:21:10;1.90;;;0.70;;
46701;SDS011;33449;50.712;7.124;2023-03-24T17:23:47;3.20;;;0.57;;
46701;SDS011;33449;50.712;7.124;2023-03-24T17:26:15;0.98;;;0.50;;
46701;SDS011;33449;50.712;7.124;2023-03-24T17:28:42;2.88;;;0.70;;
46701;SDS011;33449;50.712;7.124;2023-03-24T17:31:12;1.50;;;0.70;;
46701;SDS011;33449;50.712;7.124;2023-03-24T17:33:39;2.53;;;0.60;;
46701;SDS011;33449;50.712;7.124;2023-03-24T17:36:06;1.58;;;0.80;;
46701;SDS011;33449;50.712;7.124;2023-03-24T17:49:23;4.28;;;0.88;;
46701;SDS011;33449;50.712;7.124;2023-03-24T17:51:50;3.45;;;1.15;;
46701;SDS011;33449;50.712;7.124;2023-03-24T17:54:16;5.07;;;1.17;;
46701;SDS011;33449;50.712;7.124;2023-03-24T17:56:46;1.65;;;0.85;;
46701;SDS011;33449;50.712;7.124;2023-03-24T17:59:13;1.23;;;0.60;;
46701;SDS011;33449;50.712;7.124;2023-03-24T18:01:39;1.98;;;0.75;;
46701;SDS011;33449;50.712;7.124;2023-03-24T18:04:06;2.13;;;1.02;;
46701;SDS011;33449;50.712;7.124;2023-03-24T18:06:33;1.80;;;0.77;;
46701;SDS011;33449;50.712;7.124;2023-03-24T18:09:00;3.22;;;1.60;;
46701;SDS011;33449;50.712;7.124;2023-03-24T18:13:59;3.70;;;1.33;;
46701;SDS011;33449;50.712;7.124;2023-03-24T18:16:26;3.17;;;1.17;;
46701;SDS011;33449;50.712;7.124;2023-03-24T18:18:56;2.80;;;1.88;;
46701;SDS011;33449;50.712;7.124;2023-03-24T18:21:23;4.13;;;1.80;;
46701;SDS011;33449;50.712;7.124;2023-03-24T18:23:49;2.72;;;1.27;;
46701;SDS011;33449;50.712;7.124;2023-03-24T18:31:22;7.93;;;1.77;;
46701;SDS011;33449;50.712;7.124;2023-03-24T18:33:51;11.40;;;1.88;;
46701;SDS011;33449;50.712;7.124;2023-03-24T18:36:19;5.68;;;2.08;;
46701;SDS011;33449;50.712;7.124;2023-03-24T18:39:09;6.85;;;1.90;;
46701;SDS011;33449;50.712;7.124;2023-03-24T18:41:36;5.55;;;1.45;;
46701;SDS011;33449;50.712;7.124;2023-03-24T18:44:05;4.57;;;1.83;;
46701;SDS011;33449;50.712;7.124;2023-03-24T18:49:19;7.10;;;2.50;;
46701;SDS011;33449;50.712;7.124;2023-03-24T18:51:46;5.70;;;3.13;;
46701;SDS011;33449;50.712;7.124;2023-03-24T18:54:13;5.35;;;1.92;;
46701;SDS011;33449;50.712;7.124;2023-03-24T18:56:39;5.25;;;1.80;;
46701;SDS011;33449;50.712;7.124;2023-03-24T19:02:02;5.68;;;2.03;;
46701;SDS011;33449;50.712;7.124;2023-03-24T19:04:45;3.58;;;1.55;;
46701;SDS011;33449;50.712;7.124;2023-03-24T19:07:13;4.22;;;1.75;;
46701;SDS011;33449;50.712;7.124;2023-03-24T19:09:41;5.57;;;1.67;;
46701;SDS011;33449;50.712;7.124;2023-03-24T19:12:08;6.68;;;1.50;;
46701;SDS011;33449;50.712;7.124;2023-03-24T19:14:34;6.13;;;1.10;;
46701;SDS011;33449;50.712;7.124;2023-03-24T19:19:48;5.95;;;1.38;;
46701;SDS011;33449;50.712;7.124;2023-03-24T19:22:15;2.75;;;1.00;;
46701;SDS011;33449;50.712;7.124;2023-03-24T19:24:46;3.55;;;0.98;;
46701;SDS011;33449;50.712;7.124;2023-03-24T19:27:13;4.68;;;1.30;;
46701;SDS011;33449;50.712;7.124;2023-03-24T19:29:40;5.45;;;1.20;;
46701;SDS011;33449;50.712;7.124;2023-03-24T19:34:39;2.63;;;1.10;;
46701;SDS011;33449;50.712;7.124;2023-03-24T19:37:06;4.78;;;1.35;;
46701;SDS011;33449;50.712;7.124;2023-03-24T19:39:35;3.95;;;1.20;;
46701;SDS011;33449;50.712;7.124;2023-03-24T19:44:42;5.85;;;1.33;;
46701;SDS011;33449;50.712;7.124;2023-03-24T19:49:39;3.60;;;1.00;;
46701;SDS011;33449;50.712;7.124;2023-03-24T19:52:06;5.88;;;1.13;;
46701;SDS011;33449;50.712;7.124;2023-03-24T19:54:32;2.05;;;0.65;;
46701;SDS011;33449;50.712;7.124;2023-03-24T19:57:00;3.50;;;1.25;;
46701;SDS011;33449;50.712;7.124;2023-03-24T19:59:28;3.10;;;0.88;;
46701;SDS011;33449;50.712;7.124;2023-03-24T20:04:32;1.27;;;0.80;;
46701;SDS011;33449;50.712;7.124;2023-03-24T20:06:58;3.47;;;1.02;;
46701;SDS011;33449;50.712;7.124;2023-03-24T20:09:26;2.60;;;0.70;;
46701;SDS011;33449;50.712;7.124;2023-03-24T20:11:53;1.20;;;0.73;;
46701;SDS011;33449;50.712;7.124;2023-03-24T20:14:19;2.25;;;1.05;;
46701;SDS011;33449;50.712;7.124;2023-03-24T20:19:35;4.30;;;0.95;;
46701;SDS011;33449;50.712;7.124;2023-03-24T20:22:02;1.95;;;0.85;;
46701;SDS011;33449;50.712;7.124;2023-03-24T20:24:31;4.63;;;0.75;;
46701;SDS011;33449;50.712;7.124;2023-03-24T20:26:59;2.60;;;0.85;;
46701;SDS011;33449;50.712;7.124;2023-03-24T20:29:26;3.33;;;0.70;;
46701;SDS011;33449;50.712;7.124;2023-03-24T20:34:27;2.33;;;0.60;;
46701;SDS011;33449;50.712;7.124;2023-03-24T20:36:54;0.65;;;0.43;;
46701;SDS011;33449;50.712;7.124;2023-03-24T20:39:21;1.80;;;0.70;;
46701;SDS011;33449;50.712;7.124;2023-03-24T20:41:48;1.67;;;0.60;;
46701;SDS011;33449;50.712;7.124;2023-03-24T20:44:14;1.65;;;0.55;;
46701;SDS011;33449;50.712;7.124;2023-03-24T20:49:29;1.02;;;0.50;;
46701;SDS011;33449;50.712;7.124;2023-03-24T20:51:57;0.40;;;0.30;;